Time;durP1;ratioP1;P1;durP2;ratioP2;P2;SDS_P1;SDS_P2;PMS_P1;PMS_P2;Temp;Humidity;BMP_temperature;BMP_pressure;BME280_temperature;BME280_humidity;BME280_pressure;Samples;Min_cycle;Max_cycle;Signal;HPM_P1;HPM_P2
2023/07/02 00:00:51;;;;;;;;;;;22.70;53.10;;;;;;5043450;28;19981;-60
2023/07/02 00:03:21;;;;;;;;;;;22.70;53.10;;;;;;5041637;28;19921;-57
2023/07/02 00:05:50;;;;;;;;;;;22.70;53.00;;;;;;5063977;28;19920;-58
2023/07/02 00:08:17;;;;;;;;;;;22.70;53.00;;;;;;5049715;28;20248;-56
2023/07/02 00:10:44;;;;;;;;;;;22.70;53.00;;;;;;5045775;28;19925;-58
2023/07/02 00:13:12;;;;;;;;;;;22.70;53.00;;;;;;5044763;28;20302;-58
2023/07/02 00:15:39;;;;;;;;;;;22.70;53.00;;;;;;5039934;28;19940;-58
2023/07/02 00:18:06;;;;;;;;;;;22.70;52.90;;;;;;5047631;28;20379;-56
2023/07/02 00:20:34;;;;;;;;;;;22.70;52.90;;;;;;5048284;28;19932;-57
2023/07/02 00:23:02;;;;;;;;;;;22.70;52.90;;;;;;5047814;28;19928;-59
2023/07/02 00:25:28;;;;;;;;;;;22.70;52.80;;;;;;5043734;28;19928;-58
2023/07/02 00:27:55;;;;;;;;;;;22.70;52.90;;;;;;5066184;28;19920;-54
2023/07/02 00:30:23;;;;;;;;;;;22.70;52.80;;;;;;5050150;28;20360;-59
2023/07/02 00:32:52;;;;;;;;;;;22.70;52.80;;;;;;5043322;28;19921;-57
2023/07/02 00:35:18;;;;;;;;;;;22.60;52.70;;;;;;5048584;28;19921;-56
2023/07/02 00:37:45;;;;;;;;;;;22.70;52.80;;;;;;5034841;28;19928;-59
2023/07/02 00:40:13;;;;;;;;;;;22.70;52.80;;;;;;5046626;28;19920;-58
2023/07/02 00:42:40;;;;;;;;;;;22.70;52.80;;;;;;5045479;28;19932;-58
2023/07/02 00:45:07;;;;;;;;;;;22.70;52.80;;;;;;5045428;28;19951;-56
2023/07/02 00:47:36;;;;;;;;;;;22.60;52.70;;;;;;5047936;28;19928;-58
2023/07/02 00:50:03;;;;;;;;;;;22.60;52.70;;;;;;5038824;28;19921;-57
2023/07/02 00:52:29;;;;;;;;;;;22.60;52.70;;;;;;5070344;28;19928;-56
2023/07/02 00:54:56;;;;;;;;;;;22.60;52.70;;;;;;5047689;28;19931;-56
2023/07/02 00:57:29;;;;;;;;;;;22.60;52.70;;;;;;5046181;28;19925;-60
2023/07/02 00:59:57;;;;;;;;;;;22.60;52.70;;;;;;5048216;28;20018;-58
2023/07/02 01:02:25;;;;;;;;;;;22.60;52.70;;;;;;5045816;28;20337;-58
2023/07/02 01:04:59;;;;;;;;;;;22.60;52.70;;;;;;5042784;28;19925;-58
2023/07/02 01:07:26;;;;;;;;;;;22.60;52.60;;;;;;5060615;28;19925;-59
2023/07/02 01:09:53;;;;;;;;;;;22.60;52.70;;;;;;5048187;28;19925;-59
2023/07/02 01:12:21;;;;;;;;;;;22.60;52.70;;;;;;5042617;28;19925;-58
2023/07/02 01:14:48;;;;;;;;;;;22.60;52.70;;;;;;5057785;28;19921;-58
2023/07/02 01:17:19;;;;;;;;;;;22.60;52.70;;;;;;5062260;28;19974;-59
2023/07/02 01:19:51;;;;;;;;;;;22.60;52.70;;;;;;5044116;28;19921;-58
2023/07/02 01:22:18;;;;;;;;;;;22.60;52.60;;;;;;5044105;28;20240;-59
2023/07/02 01:24:46;;;;;;;;;;;22.60;52.60;;;;;;5044399;28;19927;-59
2023/07/02 01:27:13;;;;;;;;;;;22.60;52.60;;;;;;5045201;28;19947;-58
2023/07/02 01:29:39;;;;;;;;;;;22.60;52.60;;;;;;5047079;28;19933;-58
2023/07/02 01:32:06;;;;;;;;;;;22.60;52.60;;;;;;5043674;28;19928;-59
2023/07/02 01:34:33;;;;;;;;;;;22.60;52.60;;;;;;5044906;28;19932;-59
2023/07/02 01:37:02;;;;;;;;;;;22.60;52.60;;;;;;5039968;28;19928;-57
2023/07/02 01:39:28;;;;;;;;;;;22.60;52.50;;;;;;5042080;28;20374;-58
2023/07/02 01:41:55;;;;;;;;;;;22.60;52.50;;;;;;5039163;28;19925;-59
2023/07/02 01:44:22;;;;;;;;;;;22.60;52.50;;;;;;5035973;28;19986;-59
2023/07/02 01:46:49;;;;;;;;;;;22.60;53.20;;;;;;5037286;28;19986;-59
2023/07/02 01:49:16;;;;;;;;;;;22.60;52.50;;;;;;5040622;28;19925;-59
2023/07/02 01:51:45;;;;;;;;;;;22.60;52.60;;;;;;5063372;28;19931;-59
2023/07/02 01:54:13;;;;;;;;;;;22.60;52.50;;;;;;5040502;28;19921;-59
2023/07/02 01:56:40;;;;;;;;;;;22.60;52.50;;;;;;5046901;28;19970;-58
2023/07/02 01:59:07;;;;;;;;;;;22.60;52.50;;;;;;5043822;28;19970;-58
2023/07/02 02:01:33;;;;;;;;;;;22.60;52.50;;;;;;5041383;28;19924;-58
2023/07/02 02:04:00;;;;;;;;;;;22.60;52.70;;;;;;5042885;28;19930;-58
2023/07/02 02:06:27;;;;;;;;;;;22.60;52.50;;;;;;5045254;28;19928;-58
2023/07/02 02:08:54;;;;;;;;;;;22.60;52.50;;;;;;5043923;28;19959;-59
2023/07/02 02:11:22;;;;;;;;;;;22.60;52.50;;;;;;5051531;28;20386;-58
2023/07/02 02:13:49;;;;;;;;;;;22.60;52.50;;;;;;5039015;28;19921;-58
2023/07/02 02:16:16;;;;;;;;;;;22.60;52.50;;;;;;5043288;28;19928;-58
2023/07/02 02:18:42;;;;;;;;;;;22.60;52.50;;;;;;5044351;28;19935;-58
2023/07/02 02:21:10;;;;;;;;;;;22.60;52.50;;;;;;5039176;28;20259;-59
2023/07/02 02:23:36;;;;;;;;;;;22.60;52.40;;;;;;5037781;28;19969;-59
2023/07/02 02:26:07;;;;;;;;;;;22.60;52.50;;;;;;5037041;28;19925;-58
2023/07/02 02:28:36;;;;;;;;;;;22.60;52.40;;;;;;5040535;28;19920;-58
2023/07/02 02:31:03;;;;;;;;;;;22.60;52.40;;;;;;5024961;28;19970;-59
2023/07/02 02:33:32;;;;;;;;;;;22.60;52.40;;;;;;5057087;28;19920;-58
2023/07/02 02:35:59;;;;;;;;;;;22.60;52.40;;;;;;5061873;28;19928;-59
2023/07/02 02:38:26;;;;;;;;;;;22.60;52.40;;;;;;5039401;28;19921;-59
2023/07/02 02:40:53;;;;;;;;;;;22.60;52.30;;;;;;5040401;28;19936;-58
2023/07/02 02:43:20;;;;;;;;;;;22.60;52.40;;;;;;5055259;28;19925;-59
2023/07/02 02:45:48;;;;;;;;;;;22.60;52.40;;;;;;5040912;28;19932;-58
2023/07/02 02:48:15;;;;;;;;;;;22.60;52.40;;;;;;5040639;28;19928;-58
2023/07/02 02:50:42;;;;;;;;;;;22.60;52.90;;;;;;5059174;28;19924;-58
2023/07/02 02:53:09;;;;;;;;;;;22.60;52.30;;;;;;5040221;28;19920;-59
2023/07/02 02:55:36;;;;;;;;;;;22.60;52.30;;;;;;5042083;28;19920;-59
2023/07/02 02:58:03;;;;;;;;;;;22.60;52.30;;;;;;5039303;28;19928;-59
2023/07/02 03:00:29;;;;;;;;;;;22.60;52.30;;;;;;5040158;28;19924;-58
2023/07/02 03:02:58;;;;;;;;;;;22.60;52.30;;;;;;5041864;28;19978;-57
2023/07/02 03:05:26;;;;;;;;;;;22.60;52.30;;;;;;5039565;28;19950;-58
2023/07/02 03:07:52;;;;;;;;;;;22.60;52.30;;;;;;5058433;28;19986;-58
2023/07/02 03:10:19;;;;;;;;;;;22.60;52.30;;;;;;5040494;28;19963;-58
2023/07/02 03:12:46;;;;;;;;;;;22.60;52.20;;;;;;5040532;28;20244;-57
2023/07/02 03:15:13;;;;;;;;;;;22.50;52.20;;;;;;5037342;28;19940;-59
2023/07/02 03:17:39;;;;;;;;;;;22.60;52.20;;;;;;5037153;28;20339;-58
2023/07/02 03:20:08;;;;;;;;;;;22.50;52.10;;;;;;5036931;28;19932;-58
2023/07/02 03:22:35;;;;;;;;;;;22.50;52.10;;;;;;5042239;28;19928;-59
2023/07/02 03:25:02;;;;;;;;;;;22.50;52.10;;;;;;5041544;28;19921;-58
2023/07/02 03:27:29;;;;;;;;;;;22.50;52.00;;;;;;5060278;28;19925;-59
2023/07/02 03:29:58;;;;;;;;;;;22.60;52.10;;;;;;5043224;28;19927;-58
2023/07/02 03:32:25;;;;;;;;;;;22.50;52.00;;;;;;5039708;28;19921;-59
2023/07/02 03:34:51;;;;;;;;;;;22.50;51.90;;;;;;5061123;28;19924;-57
2023/07/02 03:37:20;;;;;;;;;;;22.50;51.90;;;;;;5042265;28;19921;-58
2023/07/02 03:39:47;;;;;;;;;;;22.50;51.90;;;;;;5044474;28;19924;-59
2023/07/02 03:42:13;;;;;;;;;;;22.50;51.80;;;;;;5045584;28;19921;-58
2023/07/02 03:44:40;;;;;;;;;;;22.50;51.80;;;;;;5048223;28;19978;-59
2023/07/02 03:47:08;;;;;;;;;;;22.50;51.80;;;;;;5042560;28;19948;-59
2023/07/02 03:49:34;;;;;;;;;;;22.50;51.70;;;;;;5043411;28;19925;-58
2023/07/02 03:52:01;;;;;;;;;;;22.50;51.80;;;;;;5044967;28;19974;-58
2023/07/02 03:54:29;;;;;;;;;;;22.50;51.70;;;;;;5046589;28;19921;-58
2023/07/02 03:56:59;;;;;;;;;;;22.50;51.70;;;;;;5046457;28;19924;-58
2023/07/02 03:59:25;;;;;;;;;;;22.50;51.70;;;;;;5045871;28;19921;-59
2023/07/02 04:01:52;;;;;;;;;;;22.50;51.70;;;;;;5064116;28;19927;-58
2023/07/02 04:04:19;;;;;;;;;;;22.50;51.60;;;;;;5045337;28;19932;-57
2023/07/02 04:06:46;;;;;;;;;;;22.50;51.60;;;;;;5042782;28;19924;-58
2023/07/02 04:09:13;;;;;;;;;;;22.50;51.60;;;;;;5041432;28;19920;-59
2023/07/02 04:11:41;;;;;;;;;;;22.50;51.60;;;;;;5048463;28;19933;-58
2023/07/02 04:14:08;;;;;;;;;;;22.50;51.60;;;;;;5038520;28;19921;-58
2023/07/02 04:16:34;;;;;;;;;;;22.50;51.60;;;;;;5066391;28;19925;-58
2023/07/02 04:19:02;;;;;;;;;;;22.50;51.60;;;;;;5059017;28;19920;-58
2023/07/02 04:21:28;;;;;;;;;;;22.50;51.50;;;;;;5057713;28;19929;-58
2023/07/02 04:23:55;;;;;;;;;;;22.50;51.50;;;;;;5056767;28;20429;-59
2023/07/02 04:26:22;;;;;;;;;;;22.50;51.50;;;;;;5047383;28;19998;-59
2023/07/02 04:28:51;;;;;;;;;;;22.50;51.40;;;;;;5044936;28;19950;-58
2023/07/02 04:31:20;;;;;;;;;;;22.50;51.40;;;;;;5064637;28;19956;-57
2023/07/02 04:33:47;;;;;;;;;;;22.50;51.40;;;;;;5038833;28;19940;-58
2023/07/02 04:36:17;;;;;;;;;;;22.50;51.30;;;;;;5045789;28;19921;-58
2023/07/02 04:38:44;;;;;;;;;;;22.40;51.20;;;;;;5046339;28;20320;-58
2023/07/02 04:41:11;;;;;;;;;;;22.40;51.20;;;;;;5059542;28;20000;-58
2023/07/02 04:43:38;;;;;;;;;;;22.40;51.20;;;;;;5041932;28;19927;-59
2023/07/02 04:46:07;;;;;;;;;;;22.40;51.10;;;;;;5043295;28;19987;-58
2023/07/02 04:48:34;;;;;;;;;;;22.40;51.10;;;;;;5042547;28;19925;-58
2023/07/02 04:51:01;;;;;;;;;;;22.40;51.00;;;;;;5061985;28;19924;-58
2023/07/02 04:53:29;;;;;;;;;;;22.40;51.00;;;;;;5043509;28;19935;-58
2023/07/02 04:55:56;;;;;;;;;;;22.40;51.00;;;;;;5041147;28;19928;-58
2023/07/02 04:58:23;;;;;;;;;;;22.40;50.90;;;;;;5043752;28;19928;-58
2023/07/02 05:00:50;;;;;;;;;;;22.40;50.90;;;;;;5041505;28;19931;-57
2023/07/02 05:03:18;;;;;;;;;;;22.40;50.90;;;;;;5043273;28;19921;-58
2023/07/02 05:05:45;;;;;;;;;;;22.40;50.80;;;;;;5042388;28;19961;-58
2023/07/02 05:08:12;;;;;;;;;;;22.40;50.80;;;;;;5038715;28;19921;-58
2023/07/02 05:10:39;;;;;;;;;;;22.40;50.80;;;;;;5045383;28;20019;-58
2023/07/02 05:13:06;;;;;;;;;;;22.40;50.70;;;;;;5041398;28;19931;-58
2023/07/02 05:15:32;;;;;;;;;;;22.40;50.70;;;;;;5044363;28;19925;-58
2023/07/02 05:17:59;;;;;;;;;;;22.40;50.70;;;;;;5056252;28;19975;-56
2023/07/02 05:20:28;;;;;;;;;;;22.40;50.60;;;;;;5058937;28;20235;-59
2023/07/02 05:22:54;;;;;;;;;;;22.40;50.60;;;;;;5058735;28;20332;-58
2023/07/02 05:25:21;;;;;;;;;;;22.40;50.60;;;;;;5042963;28;19924;-58
2023/07/02 05:27:48;;;;;;;;;;;22.40;50.60;;;;;;5043729;28;19920;-58
2023/07/02 05:30:15;;;;;;;;;;;22.40;50.60;;;;;;5054542;28;19971;-58
2023/07/02 05:32:43;;;;;;;;;;;22.40;50.50;;;;;;5041436;28;19940;-58
2023/07/02 05:35:09;;;;;;;;;;;22.40;50.50;;;;;;5054606;28;19920;-58
2023/07/02 05:37:38;;;;;;;;;;;22.40;50.50;;;;;;5043653;28;20015;-58
2023/07/02 05:40:05;;;;;;;;;;;22.40;50.50;;;;;;5042450;28;19924;-59
2023/07/02 05:42:32;;;;;;;;;;;22.40;50.50;;;;;;5039777;28;19924;-58
2023/07/02 05:44:59;;;;;;;;;;;22.40;50.40;;;;;;5040677;28;19975;-58
2023/07/02 05:47:25;;;;;;;;;;;22.40;50.40;;;;;;5040490;28;19933;-58
2023/07/02 05:49:52;;;;;;;;;;;22.40;50.40;;;;;;5060659;28;19920;-58
2023/07/02 05:52:19;;;;;;;;;;;22.40;50.40;;;;;;5044470;28;19952;-59
2023/07/02 05:54:47;;;;;;;;;;;22.40;50.30;;;;;;5044243;28;19932;-59
2023/07/02 05:57:14;;;;;;;;;;;22.40;50.30;;;;;;5041561;28;19979;-58
2023/07/02 05:59:41;;;;;;;;;;;22.40;50.30;;;;;;5040067;28;19924;-59
2023/07/02 06:02:08;;;;;;;;;;;22.40;50.30;;;;;;5038410;28;19925;-59
2023/07/02 06:04:34;;;;;;;;;;;22.40;50.40;;;;;;5040234;28;19943;-59
2023/07/02 06:07:02;;;;;;;;;;;22.40;50.30;;;;;;5040513;28;19937;-59
2023/07/02 06:09:28;;;;;;;;;;;22.40;50.30;;;;;;5038833;28;19921;-58
2023/07/02 06:11:57;;;;;;;;;;;22.40;50.30;;;;;;5037533;28;19924;-59
2023/07/02 06:14:25;;;;;;;;;;;22.40;50.30;;;;;;5055870;28;20282;-59
2023/07/02 06:16:52;;;;;;;;;;;22.40;50.30;;;;;;5032691;28;19927;-59
2023/07/02 06:19:18;;;;;;;;;;;22.40;50.20;;;;;;5033493;28;19928;-59
2023/07/02 06:21:45;;;;;;;;;;;22.40;50.20;;;;;;5030463;28;20436;-58
2023/07/02 06:24:12;;;;;;;;;;;22.40;50.20;;;;;;5046639;28;20062;-59
2023/07/02 06:26:39;;;;;;;;;;;22.40;50.20;;;;;;5034733;28;19939;-59
2023/07/02 06:29:07;;;;;;;;;;;22.40;50.20;;;;;;5039372;28;19933;-58
2023/07/02 06:31:34;;;;;;;;;;;22.40;50.20;;;;;;5028211;28;20386;-58
2023/07/02 06:34:01;;;;;;;;;;;22.40;50.10;;;;;;5030442;28;20391;-57
2023/07/02 06:36:28;;;;;;;;;;;22.40;50.10;;;;;;5036328;28;19967;-58
2023/07/02 06:38:55;;;;;;;;;;;22.40;50.10;;;;;;5040612;28;19974;-58
2023/07/02 06:41:21;;;;;;;;;;;22.40;50.10;;;;;;5042832;28;19924;-59
2023/07/02 06:43:48;;;;;;;;;;;22.40;50.10;;;;;;5028069;28;19974;-59
2023/07/02 06:46:17;;;;;;;;;;;22.40;50.10;;;;;;5038939;28;19929;-59
2023/07/02 06:48:43;;;;;;;;;;;22.40;50.10;;;;;;5034742;28;19933;-59
2023/07/02 06:51:14;;;;;;;;;;;22.40;50.00;;;;;;5040989;28;19921;-58
2023/07/02 06:53:41;;;;;;;;;;;22.40;50.00;;;;;;5036422;28;19924;-58
2023/07/02 06:56:08;;;;;;;;;;;22.40;50.00;;;;;;5039234;28;19978;-58
2023/07/02 06:58:35;;;;;;;;;;;22.40;49.90;;;;;;5036795;28;19924;-57
2023/07/02 07:01:02;;;;;;;;;;;22.40;49.90;;;;;;5035280;28;19932;-58
2023/07/02 07:03:31;;;;;;;;;;;22.40;49.90;;;;;;5037091;28;19939;-58
2023/07/02 07:05:57;;;;;;;;;;;22.40;49.90;;;;;;5051903;28;19920;-58
2023/07/02 07:08:24;;;;;;;;;;;22.40;49.90;;;;;;5038631;28;19920;-58
2023/07/02 07:10:51;;;;;;;;;;;22.40;49.90;;;;;;5033744;28;20449;-58
2023/07/02 07:13:18;;;;;;;;;;;22.40;49.90;;;;;;5034539;28;19932;-58
2023/07/02 07:15:45;;;;;;;;;;;22.40;49.90;;;;;;5030139;28;20184;-58
2023/07/02 07:18:12;;;;;;;;;;;22.40;49.80;;;;;;5028683;28;19959;-59
2023/07/02 07:20:41;;;;;;;;;;;22.40;49.80;;;;;;5057145;28;19927;-59
2023/07/02 07:23:07;;;;;;;;;;;22.40;49.80;;;;;;5030788;28;19969;-59
2023/07/02 07:25:34;;;;;;;;;;;22.40;49.80;;;;;;5052524;28;19925;-59
2023/07/02 07:28:01;;;;;;;;;;;22.40;49.80;;;;;;5035633;28;19924;-59
2023/07/02 07:30:28;;;;;;;;;;;22.40;49.70;;;;;;5036545;28;19927;-59
2023/07/02 07:32:55;;;;;;;;;;;22.40;49.70;;;;;;5042353;28;19932;-58
2023/07/02 07:35:22;;;;;;;;;;;22.40;49.70;;;;;;5033117;28;19937;-59
2023/07/02 07:37:50;;;;;;;;;;;22.40;49.70;;;;;;5030242;28;19933;-59
2023/07/02 07:40:17;;;;;;;;;;;22.40;49.60;;;;;;5031033;28;19967;-59
2023/07/02 07:42:43;;;;;;;;;;;22.40;49.60;;;;;;5051368;28;19928;-59
2023/07/02 07:45:11;;;;;;;;;;;22.40;49.50;;;;;;5031007;28;19921;-59
2023/07/02 07:47:37;;;;;;;;;;;22.40;49.40;;;;;;5045305;28;19925;-59
2023/07/02 07:50:09;;;;;;;;;;;22.40;49.20;;;;;;5050050;28;19921;-59
2023/07/02 07:52:37;;;;;;;;;;;22.40;49.20;;;;;;5033323;28;19924;-58
2023/07/02 07:55:05;;;;;;;;;;;22.40;49.10;;;;;;5042141;28;19920;-58
2023/07/02 07:57:32;;;;;;;;;;;22.40;49.10;;;;;;5034802;28;20328;-58
2023/07/02 07:59:59;;;;;;;;;;;22.40;49.60;;;;;;5056241;28;20397;-58
2023/07/02 08:02:26;;;;;;;;;;;22.40;49.00;;;;;;5038414;28;19925;-59
2023/07/02 08:04:53;;;;;;;;;;;22.40;49.00;;;;;;5034773;28;19928;-58
2023/07/02 08:07:20;;;;;;;;;;;22.40;48.90;;;;;;5061607;28;19950;-59
2023/07/02 08:09:47;;;;;;;;;;;22.40;48.80;;;;;;5017180;28;19925;-58
2023/07/02 08:12:15;;;;;;;;;;;22.40;48.70;;;;;;5034716;28;19925;-59
2023/07/02 08:14:42;;;;;;;;;;;22.40;48.70;;;;;;5053595;28;19925;-58
2023/07/02 08:17:09;;;;;;;;;;;22.40;48.60;;;;;;5034458;28;19930;-59
2023/07/02 08:19:38;;;;;;;;;;;22.40;48.50;;;;;;5028027;28;20649;-59
2023/07/02 08:22:05;;;;;;;;;;;22.40;48.50;;;;;;5037855;28;19968;-59
2023/07/02 08:24:31;;;;;;;;;;;22.40;48.60;;;;;;5040711;28;19961;-59
2023/07/02 08:26:58;;;;;;;;;;;22.40;48.70;;;;;;5036171;28;19928;-58
2023/07/02 08:29:26;;;;;;;;;;;22.40;48.50;;;;;;5039699;28;19928;-59
2023/07/02 08:31:53;;;;;;;;;;;22.40;48.40;;;;;;5045844;28;19924;-60
2023/07/02 08:34:20;;;;;;;;;;;22.40;48.30;;;;;;5045517;28;19939;-59
2023/07/02 08:36:47;;;;;;;;;;;22.40;48.10;;;;;;5035984;28;19920;-59
2023/07/02 08:39:14;;;;;;;;;;;22.40;47.90;;;;;;5035868;28;19974;-59
2023/07/02 08:41:45;;;;;;;;;;;22.40;47.80;;;;;;5041657;28;19932;-59
2023/07/02 08:44:12;;;;;;;;;;;22.30;47.60;;;;;;5034630;28;20095;-58
2023/07/02 08:46:40;;;;;;;;;;;22.40;47.60;;;;;;5036130;28;19951;-60
2023/07/02 08:49:07;;;;;;;;;;;22.40;47.50;;;;;;5049796;28;20291;-57
2023/07/02 08:51:34;;;;;;;;;;;22.40;47.40;;;;;;5041110;28;19921;-57
2023/07/02 08:54:00;;;;;;;;;;;22.40;47.30;;;;;;5041137;28;19923;-58
2023/07/02 08:56:27;;;;;;;;;;;22.30;47.10;;;;;;5045357;28;19951;-61
2023/07/02 08:58:54;;;;;;;;;;;22.40;47.00;;;;;;5039119;28;20081;-62
2023/07/02 09:01:21;;;;;;;;;;;22.30;46.60;;;;;;5035681;28;19920;-62
2023/07/02 09:03:50;;;;;;;;;;;22.40;46.60;;;;;;5035837;28;20317;-61
2023/07/02 09:06:18;;;;;;;;;;;22.30;46.60;;;;;;5035775;28;19925;-58
2023/07/02 09:08:45;;;;;;;;;;;22.30;46.60;;;;;;5030502;28;19932;-58
2023/07/02 09:11:12;;;;;;;;;;;22.40;46.60;;;;;;5054497;28;19932;-58
2023/07/02 09:13:46;;;;;;;;;;;22.30;46.40;;;;;;5043060;28;19942;-58
2023/07/02 09:16:25;;;;;;;;;;;22.40;46.30;;;;;;5036197;28;19924;-59
2023/07/02 09:18:57;;;;;;;;;;;22.40;46.10;;;;;;5039529;28;19946;-56
2023/07/02 09:21:26;;;;;;;;;;;22.40;46.20;;;;;;5033432;28;19924;-59
2023/07/02 09:23:53;;;;;;;;;;;22.40;46.10;;;;;;5040160;28;20366;-59
2023/07/02 09:26:20;;;;;;;;;;;22.40;46.10;;;;;;5038021;28;19928;-57
2023/07/02 09:28:47;;;;;;;;;;;22.40;46.50;;;;;;5040450;28;19920;-57
2023/07/02 09:31:14;;;;;;;;;;;22.40;45.80;;;;;;5042976;28;19927;-57
2023/07/02 09:33:41;;;;;;;;;;;22.40;45.80;;;;;;5040181;28;20353;-58
2023/07/02 09:36:09;;;;;;;;;;;22.40;45.80;;;;;;5041141;28;19924;-58
2023/07/02 09:38:36;;;;;;;;;;;22.30;45.70;;;;;;5038103;28;20323;-62
2023/07/02 09:41:03;;;;;;;;;;;22.40;45.80;;;;;;5044679;28;19924;-58
2023/07/02 09:43:30;;;;;;;;;;;22.30;45.60;;;;;;5036806;28;19924;-58
2023/07/02 09:45:57;;;;;;;;;;;22.40;45.80;;;;;;5034133;28;20260;-59
2023/07/02 09:48:25;;;;;;;;;;;22.40;45.70;;;;;;5035020;28;19925;-55
2023/07/02 09:50:52;;;;;;;;;;;22.40;45.70;;;;;;5042203;28;20038;-57
2023/07/02 09:53:20;;;;;;;;;;;22.40;45.60;;;;;;5044163;28;19974;-58
2023/07/02 09:55:47;;;;;;;;;;;22.40;45.50;;;;;;5041858;28;19925;-58
2023/07/02 09:58:14;;;;;;;;;;;22.40;45.40;;;;;;5043256;28;19981;-57
2023/07/02 10:00:41;;;;;;;;;;;22.40;45.30;;;;;;5038528;28;19932;-57
2023/07/02 10:03:08;;;;;;;;;;;22.40;45.30;;;;;;5024099;28;20011;-59
2023/07/02 10:05:35;;;;;;;;;;;22.40;45.30;;;;;;5054693;28;19943;-58
2023/07/02 10:08:12;;;;;;;;;;;22.40;45.30;;;;;;5045597;28;19932;-61
2023/07/02 10:10:40;;;;;;;;;;;22.40;45.30;;;;;;5053586;28;19924;-58
2023/07/02 10:13:07;;;;;;;;;;;22.40;45.30;;;;;;5029624;28;19925;-58
2023/07/02 10:15:37;;;;;;;;;;;22.40;45.40;;;;;;5032843;28;19983;-59
2023/07/02 10:18:04;;;;;;;;;;;22.40;45.40;;;;;;5035625;28;19925;-59
2023/07/02 10:20:34;;;;;;;;;;;22.40;45.40;;;;;;5034489;28;20287;-58
2023/07/02 10:23:01;;;;;;;;;;;22.40;46.10;;;;;;5056058;28;19925;-59
2023/07/02 10:25:28;;;;;;;;;;;22.40;45.50;;;;;;5039335;28;19929;-58
2023/07/02 10:27:56;;;;;;;;;;;22.40;45.40;;;;;;5059255;28;19925;-59
2023/07/02 10:30:31;;;;;;;;;;;22.40;45.30;;;;;;5038603;28;20137;-59
2023/07/02 10:33:07;;;;;;;;;;;22.40;45.30;;;;;;5056209;28;19921;-59
2023/07/02 10:35:34;;;;;;;;;;;22.40;45.30;;;;;;5037849;28;19931;-59
2023/07/02 10:38:01;;;;;;;;;;;22.40;45.20;;;;;;5039195;28;19924;-59
2023/07/02 10:40:27;;;;;;;;;;;22.40;45.30;;;;;;5031749;28;20319;-60
2023/07/02 10:42:54;;;;;;;;;;;22.40;45.40;;;;;;5033430;28;19933;-60
2023/07/02 10:45:31;;;;;;;;;;;22.40;45.40;;;;;;5031218;28;19932;-60
2023/07/02 10:47:58;;;;;;;;;;;22.40;45.20;;;;;;5040019;28;19924;-59
2023/07/02 10:50:25;;;;;;;;;;;22.40;45.10;;;;;;5033706;28;19974;-58
2023/07/02 10:52:52;;;;;;;;;;;22.40;44.90;;;;;;5034567;28;19921;-58
2023/07/02 10:55:19;;;;;;;;;;;22.40;44.70;;;;;;5035913;28;19921;-58
2023/07/02 10:57:46;;;;;;;;;;;22.40;44.60;;;;;;5037092;28;19978;-58
2023/07/02 11:00:13;;;;;;;;;;;22.50;45.10;;;;;;5039521;28;19925;-59
2023/07/02 11:02:42;;;;;;;;;;;22.40;44.50;;;;;;5038366;28;19925;-59
2023/07/02 11:05:11;;;;;;;;;;;22.40;44.40;;;;;;5051735;28;19924;-58
2023/07/02 11:07:39;;;;;;;;;;;22.40;44.30;;;;;;5051379;28;19958;-58
2023/07/02 11:10:06;;;;;;;;;;;22.50;44.50;;;;;;5043816;28;19950;-59
2023/07/02 11:12:33;;;;;;;;;;;22.40;44.50;;;;;;5034880;28;19926;-58
2023/07/02 11:15:09;;;;;;;;;;;22.40;44.40;;;;;;5032601;28;20263;-58
2023/07/02 11:17:36;;;;;;;;;;;22.50;44.40;;;;;;5030542;28;19960;-58
2023/07/02 11:20:05;;;;;;;;;;;22.50;44.50;;;;;;5050422;28;19971;-60
2023/07/02 11:22:32;;;;;;;;;;;22.50;44.50;;;;;;5030727;28;19952;-58
2023/07/02 11:25:01;;;;;;;;;;;22.50;44.50;;;;;;5032841;28;19921;-59
2023/07/02 11:27:28;;;;;;;;;;;22.50;44.50;;;;;;5038320;28;19920;-59
2023/07/02 11:29:59;;;;;;;;;;;22.50;44.50;;;;;;5034186;28;20019;-58
2023/07/02 11:32:26;;;;;;;;;;;22.40;44.40;;;;;;5040597;28;19929;-58
2023/07/02 11:34:54;;;;;;;;;;;22.50;44.50;;;;;;5029890;28;19925;-59
2023/07/02 11:37:22;;;;;;;;;;;22.50;44.50;;;;;;5030883;28;19936;-58
2023/07/02 11:39:48;;;;;;;;;;;22.50;44.50;;;;;;5032057;28;19921;-58
2023/07/02 11:42:15;;;;;;;;;;;22.50;44.50;;;;;;5029602;28;20366;-58
2023/07/02 11:44:42;;;;;;;;;;;22.50;44.50;;;;;;5052279;28;19983;-57
2023/07/02 11:47:09;;;;;;;;;;;22.50;44.40;;;;;;5047567;28;19960;-58
2023/07/02 11:49:36;;;;;;;;;;;22.50;44.20;;;;;;5033363;28;19928;-57
2023/07/02 11:52:03;;;;;;;;;;;22.50;44.20;;;;;;5049261;28;19925;-58
2023/07/02 11:54:31;;;;;;;;;;;22.50;44.20;;;;;;5047590;28;19925;-57
2023/07/02 11:56:58;;;;;;;;;;;22.50;44.00;;;;;;5036365;28;19928;-57
2023/07/02 11:59:25;;;;;;;;;;;22.50;43.90;;;;;;5039041;28;20469;-58
2023/07/02 12:01:51;;;;;;;;;;;22.50;43.80;;;;;;5055421;28;19931;-57
2023/07/02 12:04:18;;;;;;;;;;;22.50;43.80;;;;;;5030818;28;19929;-58
2023/07/02 12:06:45;;;;;;;;;;;22.50;43.80;;;;;;5036549;28;19932;-57
2023/07/02 12:09:14;;;;;;;;;;;22.50;44.10;;;;;;5039714;28;19978;-57
2023/07/02 12:11:44;;;;;;;;;;;22.50;44.30;;;;;;5041571;28;19927;-57
2023/07/02 12:14:11;;;;;;;;;;;22.50;44.50;;;;;;5031138;28;19933;-57
2023/07/02 12:16:38;;;;;;;;;;;22.60;44.70;;;;;;5035232;28;19925;-57
2023/07/02 12:19:04;;;;;;;;;;;22.60;44.70;;;;;;5040089;28;19921;-58
2023/07/02 12:21:31;;;;;;;;;;;22.60;44.80;;;;;;5041380;28;19932;-58
2023/07/02 12:23:58;;;;;;;;;;;22.60;44.80;;;;;;5063930;28;19927;-58
2023/07/02 12:26:25;;;;;;;;;;;22.60;44.80;;;;;;5042269;28;19947;-58
2023/07/02 12:28:53;;;;;;;;;;;22.60;44.90;;;;;;5039137;28;20394;-58
2023/07/02 12:31:19;;;;;;;;;;;22.60;44.90;;;;;;5037123;28;19921;-57
2023/07/02 12:33:46;;;;;;;;;;;22.70;45.10;;;;;;5036639;28;19921;-58
2023/07/02 12:36:13;;;;;;;;;;;22.70;45.20;;;;;;5042673;28;20006;-58
2023/07/02 12:38:40;;;;;;;;;;;22.70;45.30;;;;;;5037889;28;19920;-58
2023/07/02 12:41:07;;;;;;;;;;;22.70;45.40;;;;;;5038372;28;19932;-58
2023/07/02 12:43:34;;;;;;;;;;;22.70;45.60;;;;;;5058772;28;19932;-58
2023/07/02 12:46:02;;;;;;;;;;;22.70;45.70;;;;;;5045055;28;19920;-57
2023/07/02 12:48:29;;;;;;;;;;;22.70;45.80;;;;;;5042379;28;19928;-58
2023/07/02 12:50:56;;;;;;;;;;;22.80;46.00;;;;;;5058637;28;19944;-58
2023/07/02 12:53:23;;;;;;;;;;;22.80;46.00;;;;;;5038343;28;19956;-58
2023/07/02 12:55:49;;;;;;;;;;;22.80;46.00;;;;;;5036230;28;19921;-58
2023/07/02 12:58:17;;;;;;;;;;;22.80;46.00;;;;;;5038022;28;19928;-58
2023/07/02 13:00:47;;;;;;;;;;;22.80;46.10;;;;;;5055401;28;19921;-58
2023/07/02 13:03:15;;;;;;;;;;;22.80;46.10;;;;;;5053916;28;19927;-59
2023/07/02 13:05:42;;;;;;;;;;;22.80;46.20;;;;;;5035858;28;19932;-59
2023/07/02 13:08:09;;;;;;;;;;;22.80;46.20;;;;;;5034617;28;20263;-58
2023/07/02 13:10:35;;;;;;;;;;;22.80;46.20;;;;;;5034784;28;19982;-58
2023/07/02 13:13:02;;;;;;;;;;;22.90;46.40;;;;;;5037490;28;19978;-59
2023/07/02 13:15:29;;;;;;;;;;;22.90;46.60;;;;;;5042531;28;19920;-58
2023/07/02 13:17:56;;;;;;;;;;;22.90;46.40;;;;;;5029193;28;19929;-59
2023/07/02 13:20:24;;;;;;;;;;;22.90;46.40;;;;;;5038692;28;19970;-58
2023/07/02 13:22:51;;;;;;;;;;;22.90;46.50;;;;;;5039596;28;19928;-58
2023/07/02 13:25:17;;;;;;;;;;;22.90;46.60;;;;;;5037799;28;19920;-62
2023/07/02 13:27:44;;;;;;;;;;;22.90;46.70;;;;;;5050496;28;19928;-59
2023/07/02 13:30:13;;;;;;;;;;;22.90;46.70;;;;;;5040183;28;19946;-59
2023/07/02 13:32:39;;;;;;;;;;;22.90;46.80;;;;;;5037108;28;19928;-57
2023/07/02 13:35:06;;;;;;;;;;;22.90;46.80;;;;;;5035506;28;19939;-57
2023/07/02 13:37:35;;;;;;;;;;;22.90;46.80;;;;;;5055188;28;20001;-58
2023/07/02 13:40:03;;;;;;;;;;;22.90;46.80;;;;;;5038155;28;20019;-57
2023/07/02 13:42:30;;;;;;;;;;;22.90;46.90;;;;;;5038972;28;19927;-58
2023/07/02 13:44:56;;;;;;;;;;;22.90;47.00;;;;;;5057044;28;19936;-58
2023/07/02 13:47:23;;;;;;;;;;;22.90;47.00;;;;;;5037757;28;20256;-58
2023/07/02 13:49:50;;;;;;;;;;;22.90;47.00;;;;;;5035818;28;20367;-58
2023/07/02 13:52:17;;;;;;;;;;;22.90;47.00;;;;;;5033871;28;19920;-58
2023/07/02 13:54:45;;;;;;;;;;;23.00;47.20;;;;;;5038951;28;19920;-58
2023/07/02 13:57:12;;;;;;;;;;;23.00;47.20;;;;;;5032507;28;20200;-58
2023/07/02 13:59:40;;;;;;;;;;;23.00;47.00;;;;;;5038659;28;19920;-58
2023/07/02 14:02:07;;;;;;;;;;;22.90;46.60;;;;;;5036655;28;19970;-59
2023/07/02 14:04:34;;;;;;;;;;;22.90;46.30;;;;;;5054599;28;19959;-58
2023/07/02 14:07:00;;;;;;;;;;;23.00;46.10;;;;;;5036245;28;19925;-56
2023/07/02 14:09:27;;;;;;;;;;;22.90;45.80;;;;;;5057207;28;19936;-58
2023/07/02 14:11:54;;;;;;;;;;;22.90;45.70;;;;;;5058589;28;19921;-58
2023/07/02 14:14:20;;;;;;;;;;;22.90;45.50;;;;;;5041721;28;19924;-58
2023/07/02 14:16:49;;;;;;;;;;;22.90;45.20;;;;;;5043034;28;19947;-58